Time;durP1;ratioP1;P1;durP2;ratioP2;P2;SDS_P1;SDS_P2;PMS_P1;PMS_P2;Temp;Humidity;BMP_temperature;BMP_pressure;BME280_temperature;BME280_humidity;BME280_pressure;Samples;Min_cycle;Max_cycle;Signal;HPM_P1;HPM_P2
2022/10/31 00:00:06;;;;;;;;;;;;;;;15.25;73.59;101162.22;5047703;28;19973;-93
2022/10/31 00:02:32;;;;;;;;;;;;;;;15.22;73.56;101162.56;5028432;28;19987;-87
2022/10/31 00:04:58;;;;;;;;;;;;;;;15.22;73.53;101165.28;5049720;28;19947;-87
2022/10/31 00:07:23;;;;;;;;;;;;;;;15.23;73.21;101164.25;5043758;28;20066;-87
2022/10/31 00:09:50;;;;;;;;;;;;;;;15.25;73.00;101166.78;5038766;28;20384;-88
2022/10/31 00:12:16;;;;;;;;;;;;;;;15.21;73.44;101169.00;5049009;28;19947;-87
2022/10/31 00:14:41;;;;;;;;;;;;;;;15.15;73.39;101167.03;5052568;28;20385;-88
2022/10/31 00:17:07;;;;;;;;;;;;;;;15.09;73.60;101167.72;5028281;28;19925;-89
2022/10/31 00:19:32;;;;;;;;;;;;;;;14.95;74.23;101167.44;5030291;28;19978;-89
2022/10/31 00:21:57;;;;;;;;;;;;;;;15.05;74.35;101160.97;5026808;28;19992;-88
2022/10/31 00:24:23;;;;;;;;;;;;;;;15.13;73.83;101152.81;5034042;28;20100;-89
2022/10/31 00:26:51;;;;;;;;;;;;;;;15.05;74.37;101158.25;5029632;28;20301;-87
2022/10/31 00:29:17;;;;;;;;;;;;;;;15.03;74.51;101160.31;5052533;28;20011;-88
2022/10/31 00:31:42;;;;;;;;;;;;;;;15.06;74.09;101163.50;5032055;28;20491;-88
2022/10/31 00:34:07;;;;;;;;;;;;;;;15.09;74.29;101157.72;5047224;28;19979;-87
2022/10/31 00:36:33;;;;;;;;;;;;;;;15.10;74.32;101159.44;5047407;28;19925;-87
2022/10/31 00:38:58;;;;;;;;;;;;;;;15.06;74.80;101159.97;5052205;28;20393;-88
2022/10/31 00:41:24;;;;;;;;;;;;;;;15.09;74.89;101162.31;5032894;28;20012;-89
2022/10/31 00:43:50;;;;;;;;;;;;;;;15.05;74.93;101159.09;5044196;28;19956;-87
2022/10/31 00:46:17;;;;;;;;;;;;;;;15.08;74.74;101150.63;5030901;28;19925;-89
2022/10/31 00:48:43;;;;;;;;;;;;;;;15.16;74.91;101160.56;5014892;28;19936;-91
2022/10/31 00:51:09;;;;;;;;;;;;;;;15.10;74.74;101154.03;5055163;28;19922;-88
2022/10/31 00:53:34;;;;;;;;;;;;;;;15.12;74.09;101151.94;5032911;28;19917;-86
2022/10/31 00:56:00;;;;;;;;;;;;;;;15.09;74.29;101148.78;5053984;28;19928;-87
2022/10/31 00:58:25;;;;;;;;;;;;;;;15.15;73.64;101161.59;5028890;28;20366;-86
2022/10/31 01:00:54;;;;;;;;;;;;;;;15.14;73.55;101155.31;5050532;28;19931;-87
2022/10/31 01:03:20;;;;;;;;;;;;;;;15.12;73.75;101156.53;5053889;28;19925;-85
2022/10/31 01:05:55;;;;;;;;;;;;;;;15.14;73.21;101157.19;5048379;28;19960;-86
2022/10/31 01:08:25;;;;;;;;;;;;;;;15.18;72.80;101158.53;5052966;28;19925;-84
2022/10/31 01:11:07;;;;;;;;;;;;;;;15.04;72.95;101157.44;5044487;28;19925;-87
2022/10/31 01:13:33;;;;;;;;;;;;;;;14.95;73.55;101156.63;5031502;28;20288;-86
2022/10/31 01:16:00;;;;;;;;;;;;;;;14.94;73.29;101154.09;5049168;28;19925;-87
2022/10/31 01:18:25;;;;;;;;;;;;;;;14.99;72.98;101155.25;5047351;28;19921;-86
2022/10/31 01:20:58;;;;;;;;;;;;;;;14.99;72.82;101154.41;5033935;28;19928;-86
2022/10/31 01:23:25;;;;;;;;;;;;;;;15.02;72.10;101139.69;5035665;28;19917;-89
2022/10/31 01:25:58;;;;;;;;;;;;;;;15.06;72.34;101146.44;5073107;28;19968;-88
2022/10/31 01:28:25;;;;;;;;;;;;;;;15.01;72.43;101148.81;5043293;28;19923;-91
2022/10/31 01:30:51;;;;;;;;;;;;;;;15.04;72.38;101148.47;5041154;28;20008;-91
2022/10/31 01:36:18;;;;;;;;;;;;;;;15.20;71.78;101149.19;5064154;28;19913;-89
2022/10/31 01:38:44;;;;;;;;;;;;;;;15.22;71.51;101150.88;5033738;28;19921;-88
2022/10/31 01:41:10;;;;;;;;;;;;;;;15.26;71.54;101150.34;5013816;28;19928;-90
2022/10/31 01:43:53;;;;;;;;;;;;;;;15.27;71.62;101154.75;5016850;28;19921;-89
2022/10/31 01:46:23;;;;;;;;;;;;;;;15.20;71.96;101156.50;5031831;28;19928;-90
2022/10/31 01:48:48;;;;;;;;;;;;;;;15.24;71.71;101151.53;5028512;28;19925;-90
2022/10/31 01:51:15;;;;;;;;;;;;;;;15.18;71.81;101155.81;5029203;28;19920;-89
2022/10/31 01:53:40;;;;;;;;;;;;;;;15.33;71.45;101158.59;5007838;28;20015;-89
2022/10/31 01:56:07;;;;;;;;;;;;;;;15.34;71.53;101155.72;5012290;28;20017;-91
2022/10/31 01:58:32;;;;;;;;;;;;;;;15.43;70.83;101163.75;5030663;28;19959;-91
2022/10/31 02:01:00;;;;;;;;;;;;;;;15.45;70.81;101156.31;5014589;28;19921;-91
2022/10/31 02:03:27;;;;;;;;;;;;;;;15.45;70.89;101151.72;5040052;28;19975;-88
2022/10/31 02:05:55;;;;;;;;;;;;;;;15.48;70.86;101155.97;5050237;28;19921;-91
2022/10/31 02:08:27;;;;;;;;;;;;;;;15.40;70.74;101156.84;5028317;28;20071;-90
2022/10/31 02:10:54;;;;;;;;;;;;;;;15.24;71.23;101155.13;5020887;28;19983;-89
2022/10/31 02:13:19;;;;;;;;;;;;;;;15.26;70.62;101160.34;5028415;28;19932;-89
2022/10/31 02:15:45;;;;;;;;;;;;;;;15.28;70.66;101167.25;5011769;28;19928;-90
2022/10/31 02:18:10;;;;;;;;;;;;;;;15.20;70.82;101159.19;5015148;28;19917;-91
2022/10/31 02:20:56;;;;;;;;;;;;;;;15.12;71.06;101156.53;5049574;28;19946;-89
2022/10/31 02:23:28;;;;;;;;;;;;;;;15.15;71.28;101150.78;5041327;28;20657;-89
2022/10/31 02:26:16;;;;;;;;;;;;;;;15.09;70.85;101152.31;5025918;28;19972;-89
2022/10/31 02:28:57;;;;;;;;;;;;;;;15.14;70.36;101159.91;5025010;28;19917;-89
2022/10/31 02:31:34;;;;;;;;;;;;;;;14.97;70.26;101143.75;5044408;28;19928;-89
2022/10/31 02:34:19;;;;;;;;;;;;;;;15.08;70.05;101166.06;5048220;28;19916;-89
2022/10/31 02:36:49;;;;;;;;;;;;;;;14.97;70.11;101170.81;5043512;28;19956;-90
2022/10/31 02:39:17;;;;;;;;;;;;;;;14.86;70.00;101173.94;5010280;28;19952;-88
2022/10/31 02:41:52;;;;;;;;;;;;;;;14.88;69.17;101176.47;5024855;28;20309;-88
2022/10/31 02:44:44;;;;;;;;;;;;;;;14.91;69.30;101182.38;5029079;28;19917;-88
2022/10/31 02:47:16;;;;;;;;;;;;;;;14.81;69.36;101179.03;5018049;28;19927;-90
2022/10/31 02:49:54;;;;;;;;;;;;;;;14.92;69.12;101177.81;5027916;28;20439;-87
2022/10/31 02:52:21;;;;;;;;;;;;;;;15.03;69.24;101173.84;5020283;28;20031;-88
2022/10/31 02:54:47;;;;;;;;;;;;;;;15.10;68.73;101174.81;5028303;28;19921;-90
2022/10/31 02:57:12;;;;;;;;;;;;;;;15.19;68.72;101182.75;5025299;28;19929;-89
2022/10/31 02:59:39;;;;;;;;;;;;;;;15.25;68.07;101178.47;5025484;28;19925;-91
2022/10/31 03:02:05;;;;;;;;;;;;;;;15.30;68.41;101167.09;5024301;28;20420;-89
2022/10/31 03:04:48;;;;;;;;;;;;;;;15.36;67.92;101177.22;5028783;28;19967;-89
2022/10/31 03:07:16;;;;;;;;;;;;;;;15.39;67.65;101179.56;5020684;28;19925;-88
2022/10/31 03:10:23;;;;;;;;;;;;;;;15.42;67.83;101179.19;5026037;28;19925;-88
2022/10/31 03:12:48;;;;;;;;;;;;;;;15.45;68.37;101172.56;5018722;28;20008;-88
2022/10/31 03:15:27;;;;;;;;;;;;;;;15.41;68.61;101178.34;5026340;28;19921;-86
2022/10/31 03:18:01;;;;;;;;;;;;;;;15.41;68.59;101180.22;5004064;28;19957;-89
2022/10/31 03:20:33;;;;;;;;;;;;;;;15.40;68.26;101187.50;5025132;28;19928;-87
2022/10/31 03:22:58;;;;;;;;;;;;;;;15.40;68.29;101179.38;5025033;28;20361;-90
2022/10/31 03:25:24;;;;;;;;;;;;;;;15.36;68.03;101188.88;5027580;28;19947;-90
2022/10/31 03:27:49;;;;;;;;;;;;;;;15.32;68.20;101187.56;5024678;28;19927;-88
2022/10/31 03:30:17;;;;;;;;;;;;;;;15.27;67.84;101187.25;5026080;28;19928;-91
2022/10/31 03:32:44;;;;;;;;;;;;;;;15.19;67.79;101190.88;5023088;28;19929;-88
2022/10/31 03:35:09;;;;;;;;;;;;;;;15.16;67.34;101193.06;5026622;28;19970;-89
2022/10/31 03:37:36;;;;;;;;;;;;;;;15.13;67.44;101198.84;5021956;28;19996;-92
2022/10/31 03:40:04;;;;;;;;;;;;;;;14.99;68.10;101201.28;4981027;28;20346;-90
2022/10/31 03:42:30;;;;;;;;;;;;;;;14.98;68.20;101209.56;5014221;28;19921;-92
2022/10/31 03:44:58;;;;;;;;;;;;;;;14.91;68.28;101205.88;5025958;28;19932;-89
2022/10/31 03:47:23;;;;;;;;;;;;;;;14.85;68.58;101209.31;5017107;28;19932;-89
2022/10/31 03:49:48;;;;;;;;;;;;;;;14.82;68.41;101217.75;5034481;28;19957;-88
2022/10/31 03:52:23;;;;;;;;;;;;;;;14.77;68.65;101221.00;5011266;28;20039;-91
2022/10/31 03:54:56;;;;;;;;;;;;;;;14.77;68.63;101221.00;5002626;28;20366;-90
2022/10/31 03:57:28;;;;;;;;;;;;;;;14.73;68.28;101222.38;5001162;28;19988;-91
2022/10/31 03:59:56;;;;;;;;;;;;;;;14.81;67.80;101219.63;5019103;28;20376;-91
2022/10/31 04:02:22;;;;;;;;;;;;;;;14.82;68.08;101232.16;5005612;28;19926;-89
2022/10/31 04:04:54;;;;;;;;;;;;;;;14.92;67.73;101224.66;5012956;28;19910;-90
2022/10/31 04:07:19;;;;;;;;;;;;;;;15.01;67.47;101230.03;5025212;28;19909;-89
2022/10/31 04:09:47;;;;;;;;;;;;;;;15.04;67.80;101232.41;5030820;28;19976;-88
2022/10/31 04:12:14;;;;;;;;;;;;;;;15.07;67.69;101230.16;5001737;28;19945;-91
2022/10/31 04:14:41;;;;;;;;;;;;;;;15.14;67.79;101225.75;5012142;28;20248;-91
2022/10/31 04:17:08;;;;;;;;;;;;;;;15.12;67.78;101225.06;4989612;28;20020;-89
2022/10/31 04:19:33;;;;;;;;;;;;;;;15.07;67.76;101234.75;5011199;28;19956;-90
2022/10/31 04:21:59;;;;;;;;;;;;;;;15.08;68.11;101236.47;5002386;28;19922;-90
2022/10/31 04:24:24;;;;;;;;;;;;;;;15.15;67.67;101240.97;4999723;28;19918;-89
2022/10/31 04:26:50;;;;;;;;;;;;;;;15.20;67.50;101245.88;5008845;28;20227;-89
2022/10/31 04:29:16;;;;;;;;;;;;;;;14.96;67.51;101244.97;5012481;28;19921;-89
2022/10/31 04:31:42;;;;;;;;;;;;;;;14.91;67.43;101247.34;5002967;28;20325;-90
2022/10/31 04:34:08;;;;;;;;;;;;;;;14.81;67.72;101246.69;5011458;28;20433;-90
2022/10/31 04:36:34;;;;;;;;;;;;;;;14.85;67.79;101253.47;5000615;28;19922;-90
2022/10/31 04:39:00;;;;;;;;;;;;;;;14.81;67.89;101246.69;5021145;28;19926;-89
2022/10/31 04:41:26;;;;;;;;;;;;;;;14.74;67.87;101257.38;4993862;28;20103;-88
2022/10/31 04:43:58;;;;;;;;;;;;;;;14.87;66.92;101262.25;5009627;28;20381;-89
2022/10/31 04:46:23;;;;;;;;;;;;;;;14.88;66.03;101268.50;5006294;28;19980;-88
2022/10/31 04:48:48;;;;;;;;;;;;;;;14.88;65.83;101268.50;5006534;28;19976;-89
2022/10/31 04:51:14;;;;;;;;;;;;;;;14.91;65.77;101277.13;5004217;28;20001;-89
2022/10/31 04:53:42;;;;;;;;;;;;;;;14.92;65.39;101277.97;5025853;28;20348;-89
2022/10/31 04:56:07;;;;;;;;;;;;;;;14.92;64.96;101280.69;5005273;28;20020;-88
2022/10/31 04:58:33;;;;;;;;;;;;;;;14.97;65.10;101284.53;5005689;28;20009;-90
2022/10/31 05:01:02;;;;;;;;;;;;;;;15.07;64.83;101288.91;5032538;28;19925;-91
2022/10/31 05:03:27;;;;;;;;;;;;;;;15.19;64.08;101293.78;5008934;28;20000;-93
2022/10/31 05:05:52;;;;;;;;;;;;;;;15.30;64.03;101305.25;4995349;28;20064;-90
2022/10/31 05:08:20;;;;;;;;;;;;;;;15.22;63.56;101314.25;4992291;28;19925;-90
2022/10/31 05:10:47;;;;;;;;;;;;;;;15.24;63.36;101306.81;5010513;28;19928;-90
2022/10/31 05:13:14;;;;;;;;;;;;;;;15.25;63.27;101319.31;5003961;28;20004;-90
2022/10/31 05:15:41;;;;;;;;;;;;;;;15.22;63.26;101314.25;5007441;28;20437;-90
2022/10/31 05:18:08;;;;;;;;;;;;;;;15.30;63.25;101322.34;5001486;28;19929;-92
2022/10/31 05:20:34;;;;;;;;;;;;;;;15.39;63.44;101320.44;4995324;28;19946;-90
2022/10/31 05:23:00;;;;;;;;;;;;;;;15.51;63.11;101320.88;5011250;28;19968;-92
2022/10/31 05:25:26;;;;;;;;;;;;;;;15.45;63.66;101327.84;4998529;28;19925;-90
2022/10/31 05:27:52;;;;;;;;;;;;;;;16.06;62.40;101327.19;5031350;28;19926;-91
2022/10/31 05:30:18;;;;;;;;;;;;;;;16.40;61.04;101329.47;5026716;28;19935;-89
2022/10/31 05:32:45;;;;;;;;;;;;;;;16.43;60.85;101334.50;5029101;28;20009;-89
2022/10/31 05:35:11;;;;;;;;;;;;;;;16.51;60.29;101334.47;5007562;28;19933;-89
2022/10/31 05:37:38;;;;;;;;;;;;;;;16.59;59.49;101337.06;4997023;28;20000;-90
2022/10/31 05:40:06;;;;;;;;;;;;;;;16.70;59.81;101335.81;5025894;28;19933;-89
2022/10/31 05:42:34;;;;;;;;;;;;;;;16.73;59.15;101340.00;5023408;28;19963;-87
2022/10/31 05:45:00;;;;;;;;;;;;;;;17.03;58.36;101349.06;5030235;28;20005;-89
2022/10/31 05:47:30;;;;;;;;;;;;;;;17.14;58.36;101345.03;5024568;28;19929;-88
2022/10/31 05:49:56;;;;;;;;;;;;;;;17.24;58.42;101359.19;5033267;28;19929;-88
2022/10/31 05:52:22;;;;;;;;;;;;;;;17.37;57.96;101364.81;5037944;28;19925;-87
2022/10/31 05:54:47;;;;;;;;;;;;;;;17.66;57.07;101357.66;5050105;28;20014;-88
2022/10/31 05:57:13;;;;;;;;;;;;;;;18.00;56.23;101369.75;5048113;28;19921;-87
2022/10/31 05:59:39;;;;;;;;;;;;;;;18.89;54.38;101369.34;5041751;28;19921;-88
2022/10/31 06:02:07;;;;;;;;;;;;;;;18.82;53.49;101363.84;5035939;28;19921;-88
2022/10/31 06:04:33;;;;;;;;;;;;;;;18.69;53.52;101369.19;5044351;28;19917;-87
2022/10/31 06:06:59;;;;;;;;;;;;;;;18.40;54.38;101362.00;5030413;28;20314;-89
2022/10/31 06:09:25;;;;;;;;;;;;;;;18.31;54.83;101366.75;5020338;28;19933;-91
2022/10/31 06:11:52;;;;;;;;;;;;;;;18.35;54.25;101363.44;5027629;28;20409;-93
2022/10/31 06:14:18;;;;;;;;;;;;;;;18.29;54.56;101358.78;5033941;28;19917;-92
2022/10/31 06:16:47;;;;;;;;;;;;;;;18.48;54.29;101362.72;5029074;28;19921;-90
2022/10/31 06:19:36;;;;;;;;;;;;;;;18.59;54.27;101374.97;5020783;28;19901;-96
2022/10/31 06:22:21;;;;;;;;;;;;;;;18.67;54.27;101363.91;5039902;28;19984;-96
2022/10/31 06:24:47;;;;;;;;;;;;;;;18.88;53.71;101365.78;5033807;28;19917;-91
2022/10/31 06:27:15;;;;;;;;;;;;;;;19.02;53.43;101369.44;5044164;28;19936;-91
2022/10/31 06:29:41;;;;;;;;;;;;;;;19.19;52.94;101370.78;5052490;28;19917;-92
2022/10/31 06:32:10;;;;;;;;;;;;;;;19.49;52.20;101381.44;5021586;28;19925;-92
2022/10/31 06:34:36;;;;;;;;;;;;;;;20.28;50.59;101374.59;5016943;28;19925;-93
2022/10/31 06:37:03;;;;;;;;;;;;;;;20.57;49.63;101373.38;5027546;28;19925;-91
2022/10/31 06:39:29;;;;;;;;;;;;;;;20.48;50.08;101373.78;5037966;28;19957;-93
2022/10/31 06:41:58;;;;;;;;;;;;;;;20.33;49.25;101371.25;5022199;28;19979;-92
2022/10/31 06:44:24;;;;;;;;;;;;;;;20.45;49.02;101381.34;5033657;28;19974;-91
2022/10/31 06:46:50;;;;;;;;;;;;;;;20.57;48.90;101384.31;5057244;28;19916;-92
2022/10/31 06:49:18;;;;;;;;;;;;;;;20.61;49.10;101391.03;5039711;28;19940;-89
2022/10/31 06:52:11;;;;;;;;;;;;;;;20.83;48.56;101397.13;5045299;28;19912;-88
2022/10/31 06:54:43;;;;;;;;;;;;;;;21.06;48.34;101393.13;5054334;28;19920;-94
2022/10/31 06:57:31;;;;;;;;;;;;;;;21.17;48.40;101392.47;5054894;28;19925;-92
2022/10/31 07:00:18;;;;;;;;;;;;;;;21.31;47.95;101396.03;5056694;28;19936;-93
2022/10/31 07:02:44;;;;;;;;;;;;;;;21.32;47.85;101396.84;5027933;28;19925;-86
2022/10/31 07:05:09;;;;;;;;;;;;;;;21.34;48.30;101397.50;5013563;28;20402;-89
2022/10/31 07:07:38;;;;;;;;;;;;;;;21.18;48.17;101394.16;5021904;28;19920;-86
2022/10/31 07:10:03;;;;;;;;;;;;;;;21.25;48.12;101400.44;5048373;28;20394;-87
2022/10/31 07:12:28;;;;;;;;;;;;;;;21.32;48.23;101396.84;5042351;28;19921;-85
2022/10/31 07:14:54;;;;;;;;;;;;;;;20.86;47.53;101394.00;5013931;28;19927;-88
2022/10/31 07:17:25;;;;;;;;;;;;;;;20.95;47.71;101396.50;5044303;28;19921;-85
2022/10/31 07:19:50;;;;;;;;;;;;;;;20.77;47.35;101400.72;5030694;28;19963;-86
2022/10/31 07:22:17;;;;;;;;;;;;;;;20.40;48.12;101402.97;5045576;28;19945;-84
2022/10/31 07:24:42;;;;;;;;;;;;;;;20.36;48.58;101404.44;5011820;28;20015;-85
2022/10/31 07:27:07;;;;;;;;;;;;;;;20.50;48.31;101399.81;5028577;28;20440;-84
2022/10/31 07:29:41;;;;;;;;;;;;;;;20.69;48.21;101398.19;5032213;28;20071;-83
2022/10/31 07:32:07;;;;;;;;;;;;;;;20.70;47.93;101402.63;5035182;28;19932;-83
2022/10/31 07:34:42;;;;;;;;;;;;;;;20.80;47.72;101400.28;5020897;28;19916;-85
2022/10/31 07:37:08;;;;;;;;;;;;;;;22.16;45.24;101395.06;5058486;28;20083;-78
2022/10/31 07:39:35;;;;;;;;;;;;;;;24.10;41.24;101398.47;5023138;28;20425;-90
2022/10/31 07:45:04;;;;;;;;;;;;;;;25.01;38.55;101393.63;5037717;28;20021;-88
2022/10/31 07:47:46;;;;;;;;;;;;;;;25.66;37.13;101394.50;5036027;28;19917;-92
2022/10/31 07:50:21;;;;;;;;;;;;;;;25.46;37.19;101390.25;5038663;28;19975;-93
2022/10/31 07:52:58;;;;;;;;;;;;;;;25.67;37.26;101396.22;5022159;28;19933;-93
2022/10/31 07:58:45;;;;;;;;;;;;;;;26.48;36.38;101404.38;5021010;28;19924;-89
2022/10/31 10:27:43;;;;;;;;;;;;;;;35.60;21.35;101341.63;5019817;28;19972;-93
2022/10/31 11:14:52;;;;;;;;;;;;;;;36.94;19.81;101325.97;5033337;28;19949;-93
2022/10/31 11:17:38;;;;;;;;;;;;;;;37.83;18.62;101318.28;5016012;28;19971;-91
2022/10/31 11:23:20;;;;;;;;;;;;;;;34.61;21.99;101322.34;5034558;28;20004;-94
2022/10/31 11:31:26;;;;;;;;;;;;;;;32.41;24.29;101319.66;5075457;28;19916;-93
2022/10/31 11:37:28;;;;;;;;;;;;;;;31.86;25.46;101316.97;5063276;28;19904;-91
2022/10/31 11:45:36;;;;;;;;;;;;;;;31.58;25.89;101318.53;5065766;23;19925;-94
2022/10/31 11:48:22;;;;;;;;;;;;;;;31.10;26.35;101315.41;5036901;28;19921;-95
2022/10/31 11:54:28;;;;;;;;;;;;;;;30.79;26.81;101312.69;5057186;28;20031;-96
2022/10/31 11:57:32;;;;;;;;;;;;;;;30.24;27.79;101309.66;5004110;28;19956;-91
2022/10/31 12:00:34;;;;;;;;;;;;;;;29.36;29.05;101306.97;5003415;28;19918;-91
2022/10/31 12:03:19;;;;;;;;;;;;;;;28.35;30.11;101306.91;4963061;28;20081;-91
2022/10/31 12:08:53;;;;;;;;;;;;;;;26.58;32.73;101310.00;4992671;28;19929;-90
2022/10/31 12:11:40;;;;;;;;;;;;;;;26.76;33.06;101311.63;4998148;28;19922;-91
2022/10/31 12:39:02;;;;;;;;;;;;;;;25.56;36.09;101303.47;5060532;28;19943;-90
2022/10/31 12:45:00;;;;;;;;;;;;;;;25.04;36.50;101302.38;5059114;28;20005;-91
2022/10/31 12:48:21;;;;;;;;;;;;;;;24.83;37.15;101305.75;5027328;28;19921;-92
2022/10/31 12:51:17;;;;;;;;;;;;;;;24.97;36.94;101309.91;5030491;28;19909;-88
2022/10/31 12:57:07;;;;;;;;;;;;;;;24.57;38.53;101310.66;5016722;28;19969;-92
2022/10/31 12:59:41;;;;;;;;;;;;;;;24.68;38.57;101316.38;5015778;28;20397;-92
2022/10/31 13:02:09;;;;;;;;;;;;;;;24.74;38.79;101315.44;4993999;28;19976;-91
2022/10/31 13:04:57;;;;;;;;;;;;;;;24.35;39.38;101313.13;5003679;28;20333;-92
2022/10/31 13:07:38;;;;;;;;;;;;;;;24.41;39.70;101311.34;5001386;28;19980;-92
2022/10/31 13:10:09;;;;;;;;;;;;;;;24.29;40.02;101313.22;4994589;28;19980;-92
2022/10/31 13:12:38;;;;;;;;;;;;;;;24.47;39.55;101315.06;5000672;28;20415;-89
2022/10/31 13:15:06;;;;;;;;;;;;;;;24.52;39.46;101313.28;5018153;28;19940;-93
2022/10/31 13:17:47;;;;;;;;;;;;;;;23.94;40.06;101312.06;5005432;28;20273;-91
2022/10/31 13:20:34;;;;;;;;;;;;;;;23.55;41.07;101307.94;5026888;28;20063;-90
2022/10/31 13:23:21;;;;;;;;;;;;;;;23.44;41.04;101300.50;5052621;28;19925;-90
2022/10/31 13:25:51;;;;;;;;;;;;;;;23.53;41.27;101318.31;5058922;28;19943;-88
2022/10/31 13:28:35;;;;;;;;;;;;;;;23.53;41.00;101312.81;5030626;28;19916;-91
2022/10/31 13:31:14;;;;;;;;;;;;;;;23.37;41.71;101317.88;5196085;22;19935;-92
2022/10/31 13:33:47;;;;;;;;;;;;;;;23.34;41.46;101321.09;5006469;28;19928;-90
2022/10/31 13:36:32;;;;;;;;;;;;;;;23.07;42.16;101322.47;5036076;28;19936;-93
2022/10/31 13:39:03;;;;;;;;;;;;;;;22.64;42.63;101326.00;5056631;28;19924;-93
2022/10/31 13:41:34;;;;;;;;;;;;;;;22.45;43.22;101319.66;5041148;28;19984;-93
2022/10/31 13:44:12;;;;;;;;;;;;;;;22.39;43.17;101315.91;5038190;28;19928;-94
2022/10/31 13:46:39;;;;;;;;;;;;;;;21.95;44.28;101319.59;5036895;28;19924;-89
2022/10/31 13:49:21;;;;;;;;;;;;;;;21.80;44.75;101328.09;5024054;28;19949;-94
2022/10/31 13:51:53;;;;;;;;;;;;;;;21.87;45.18;101331.63;5030821;28;19921;-94
2022/10/31 13:54:24;;;;;;;;;;;;;;;21.90;44.37;101325.72;5043116;28;19924;-95
2022/10/31 13:56:55;;;;;;;;;;;;;;;21.94;44.49;101324.22;5093734;22;19925;-95
2022/10/31 14:02:59;;;;;;;;;;;;;;;21.95;44.50;101330.53;4954756;29;19966;-93
2022/10/31 14:05:30;;;;;;;;;;;;;;;21.51;45.80;101324.84;4956065;29;20329;-94
2022/10/31 14:08:09;;;;;;;;;;;;;;;21.23;46.74;101322.41;4962501;29;19918;-93
2022/10/31 14:10:56;;;;;;;;;;;;;;;21.36;46.60;101329.75;4959333;29;19941;-93
2022/10/31 14:13:27;;;;;;;;;;;;;;;21.35;46.25;101333.50;4941476;29;20009;-88
2022/10/31 14:16:13;;;;;;;;;;;;;;;21.30;46.42;101331.44;4942233;29;19918;-93
2022/10/31 14:19:19;;;;;;;;;;;;;;;21.17;46.60;101329.59;4956602;29;19923;-94
2022/10/31 14:22:06;;;;;;;;;;;;;;;21.03;46.81;101339.72;4940458;29;20381;-94
2022/10/31 14:24:53;;;;;;;;;;;;;;;20.96;48.03;101335.31;5045966;28;19967;-94
2022/10/31 14:27:52;;;;;;;;;;;;;;;20.93;47.77;101341.19;5062431;28;19921;-95
2022/10/31 14:30:37;;;;;;;;;;;;;;;20.83;48.13;101333.44;5053028;28;19955;-89
2022/10/31 14:33:32;;;;;;;;;;;;;;;20.80;48.18;101340.16;5062017;28;19992;-91
2022/10/31 14:36:10;;;;;;;;;;;;;;;20.67;48.45;101342.91;5047778;28;19936;-91
2022/10/31 14:38:46;;;;;;;;;;;;;;;20.61;48.96;101344.59;5036461;28;19974;-93
2022/10/31 14:41:37;;;;;;;;;;;;;;;20.40;49.18;101351.09;5045117;28;19921;-92
2022/10/31 14:44:31;;;;;;;;;;;;;;;20.27;49.92;101350.22;5054105;28;19917;-92
2022/10/31 14:47:11;;;;;;;;;;;;;;;20.20;50.16;101351.06;5049797;28;20078;-94
2022/10/31 14:49:40;;;;;;;;;;;;;;;20.07;50.53;101358.41;5042862;28;19928;-93
2022/10/31 14:52:20;;;;;;;;;;;;;;;19.86;51.28;101364.84;5059753;28;19924;-89
2022/10/31 14:55:08;;;;;;;;;;;;;;;19.68;52.38;101362.66;5053099;28;19932;-91
2022/10/31 14:57:38;;;;;;;;;;;;;;;19.44;53.10;101364.88;5038478;28;19924;-91
2022/10/31 15:00:09;;;;;;;;;;;;;;;19.26;54.02;101375.47;5015841;28;19925;-89
2022/10/31 15:02:58;;;;;;;;;;;;;;;19.09;54.10;101377.66;5053218;28;20404;-92
2022/10/31 15:05:23;;;;;;;;;;;;;;;18.96;54.84;101378.41;5037667;28;20301;-91
2022/10/31 15:08:12;;;;;;;;;;;;;;;18.80;55.26;101376.84;5035182;28;19936;-91
2022/10/31 15:10:40;;;;;;;;;;;;;;;18.76;55.57;101383.69;5057703;28;19909;-90
2022/10/31 15:13:13;;;;;;;;;;;;;;;18.62;55.71;101387.34;5025176;28;19935;-91
2022/10/31 15:15:54;;;;;;;;;;;;;;;18.47;56.36;101390.13;5037840;28;20531;-91
2022/10/31 15:18:28;;;;;;;;;;;;;;;18.42;56.62;101388.00;5048086;28;19927;-91
2022/10/31 15:21:03;;;;;;;;;;;;;;;18.31;57.35;101389.38;5038338;28;20007;-92
2022/10/31 15:23:29;;;;;;;;;;;;;;;18.28;57.41;101389.72;5043493;28;19921;-89
2022/10/31 15:26:00;;;;;;;;;;;;;;;18.15;58.09;101389.63;5033154;28;19957;-90
2022/10/31 15:28:27;;;;;;;;;;;;;;;18.11;58.28;101385.59;5054291;28;19909;-90
2022/10/31 15:30:56;;;;;;;;;;;;;;;18.09;58.51;101395.81;5058440;28;19909;-90
2022/10/31 15:33:27;;;;;;;;;;;;;;;17.99;58.55;101401.56;5074846;28;19957;-90
2022/10/31 15:36:13;;;;;;;;;;;;;;;17.91;58.62;101399.81;5078743;28;19921;-91
2022/10/31 15:38:41;;;;;;;;;;;;;;;17.89;59.10;101406.50;5070658;28;19924;-90
2022/10/31 15:41:19;;;;;;;;;;;;;;;17.82;59.06;101413.72;5075596;28;19964;-90
2022/10/31 15:43:46;;;;;;;;;;;;;;;17.78;59.26;101409.66;5027625;28;19917;-91
2022/10/31 15:46:11;;;;;;;;;;;;;;;17.70;59.42;101407.91;5037931;28;19920;-91
2022/10/31 15:48:38;;;;;;;;;;;;;;;17.66;59.81;101412.88;5040204;28;19944;-90
2022/10/31 15:51:10;;;;;;;;;;;;;;;17.55;59.90;101420.66;5066641;28;19936;-94
2022/10/31 15:54:00;;;;;;;;;;;;;;;;;;;;;
2022/10/31 15:56:33;;;;;;;;;;;;;;;17.39;61.01;101419.81;5067951;28;19948;-92
2022/10/31 15:59:20;;;;;;;;;;;;;;;17.34;61.01;101424.97;5047651;28;19951;-91
2022/10/31 16:01:56;;;;;;;;;;;;;;;17.32;61.24;101420.75;5045247;28;19996;-92
2022/10/31 16:04:31;;;;;;;;;;;;;;;17.21;61.44;101427.50;5050847;28;19917;-93
2022/10/31 16:07:01;;;;;;;;;;;;;;;17.25;61.87;101428.78;5046387;28;19921;-93
2022/10/31 16:09:30;;;;;;;;;;;;;;;17.18;61.91;101431.41;5052338;28;19937;-91
2022/10/31 16:11:59;;;;;;;;;;;;;;;17.17;61.67;101431.63;5026670;28;19927;-92
2022/10/31 16:14:28;;;;;;;;;;;;;;;17.12;61.99;101432.16;5042499;28;20389;-93
2022/10/31 16:16:56;;;;;;;;;;;;;;;17.12;61.90;101442.19;5040245;28;20365;-92
2022/10/31 16:19:36;;;;;;;;;;;;;;;17.11;62.21;101440.50;5029482;28;20025;-93
2022/10/31 16:22:32;;;;;;;;;;;;;;;17.08;61.68;101447.16;5045088;28;19917;-91
2022/10/31 16:25:25;;;;;;;;;;;;;;;16.97;62.01;101448.41;5062278;28;19928;-94
2022/10/31 16:27:53;;;;;;;;;;;;;;;16.91;61.95;101451.91;5052978;28;20007;-91
2022/10/31 16:30:25;;;;;;;;;;;;;;;16.91;62.09;101449.19;5061311;28;19921;-89
2022/10/31 16:33:09;;;;;;;;;;;;;;;16.92;61.71;101453.56;5060789;28;19924;-91
2022/10/31 16:35:45;;;;;;;;;;;;;;;16.88;61.75;101463.13;5038395;28;19917;-90
2022/10/31 16:38:12;;;;;;;;;;;;;;;16.90;61.46;101460.22;5026971;28;19948;-91
2022/10/31 16:40:43;;;;;;;;;;;;;;;16.89;60.96;101459.38;5033570;28;19925;-91
2022/10/31 16:43:12;;;;;;;;;;;;;;;16.85;60.77;101458.88;5060017;28;19955;-91
2022/10/31 16:45:37;;;;;;;;;;;;;;;16.77;60.76;101460.81;5044681;28;19917;-89
2022/10/31 16:48:08;;;;;;;;;;;;;;;16.73;61.25;101462.19;5041383;28;19968;-91
2022/10/31 16:50:59;;;;;;;;;;;;;;;16.73;60.94;101454.06;5039831;28;20408;-91
2022/10/31 16:53:37;;;;;;;;;;;;;;;16.64;61.04;101459.53;5037333;28;19921;-88
2022/10/31 16:56:06;;;;;;;;;;;;;;;16.62;61.02;101458.91;5052257;28;20885;-90
2022/10/31 16:58:36;;;;;;;;;;;;;;;16.59;61.00;101455.69;5035789;28;19991;-91
2022/10/31 17:01:04;;;;;;;;;;;;;;;16.47;60.85;101466.13;5035448;28;19936;-90
2022/10/31 17:03:30;;;;;;;;;;;;;;;16.44;61.04;101464.59;5029303;28;19916;-91
2022/10/31 17:05:58;;;;;;;;;;;;;;;16.38;60.89;101472.63;5037364;28;20408;-92
2022/10/31 17:08:23;;;;;;;;;;;;;;;16.31;60.88;101472.50;5033610;28;19925;-90
2022/10/31 17:10:58;;;;;;;;;;;;;;;16.26;60.91;101464.03;5036945;28;19921;-92
2022/10/31 17:13:36;;;;;;;;;;;;;;;16.19;61.30;101468.50;5040713;28;20383;-91
2022/10/31 17:16:14;;;;;;;;;;;;;;;16.15;60.99;101467.16;5040571;28;19921;-91
2022/10/31 17:18:42;;;;;;;;;;;;;;;16.11;60.83;101472.09;5022003;28;20385;-90
2022/10/31 17:21:19;;;;;;;;;;;;;;;16.03;60.90;101466.72;5038422;28;20002;-90